Decoded Metar for KLBX (ANGLETON in TX, USA) (IATA:LBX) | Meteo·Mobile Aviation Weather
aviador You're here:

KLBX Decoded Metar

ANGLETON in TX, USA
Report Time2019-03-21 14:53:00
UTC Time2019-03-21 15:37:01
Flight Rules vfr VFR
Wind060° at 06 kt
W.Decomp.*RWY 35: 2.5 kt HW 5.4 kt RCW
W.Rank060° ranks 24
Current wind is below 060° avg. (6.5)
Visibility9999 m
Phenomena:N/A
Clouds:N/A
Expected CloudBase > 3,200 ft AGL from Temp-Dew spread
CeilingNone
Temp17°C (ISA +2)
Dew Point09°C (59% RH)
AAT14.6°C
QNH1025 hPa
Density Alt13 ft
Elevation20 ft
Report Wrong Elevation
Raw Report
KLBX 211453Z AUTO 06006KT 10SM CLR 17/09 A3027 RMK AO2 SLP248
T01720094 51012=

Extra information for KLBX:More info

Metar Taf Metar & Taf Last 4 Metars F.Rules Stats Wind Profile Meteogram Temp Stats Airport Information Weather charts Add Link Nearby VenuesMetar ALERT Operation Metar Decoded Social comments

AIRNAV info for KLBX